Time;durP1;ratioP1;P1;durP2;ratioP2;P2;SDS_P1;SDS_P2;PMS_P1;PMS_P2;Temp;Humidity;BMP_temperature;BMP_pressure;BME280_temperature;BME280_humidity;BME280_pressure;Samples;Min_cycle;Max_cycle;Signal;HPM_P1;HPM_P2
2022/02/17 10:50:43;;;;;;;13.10;3.85;;;8.30;99.90;;;;;;5090901;27;20954;-76
2022/02/17 10:53:16;;;;;;;11.63;2.80;;;8.40;99.90;;;;;;5090885;28;20171;-86
2022/02/17 10:55:59;;;;;;;14.23;3.10;;;8.60;99.90;;;;;;5089570;28;20255;-86
2022/02/17 10:58:28;;;;;;;12.23;3.25;;;8.60;99.90;;;;;;5089513;28;20172;-81
2022/02/17 11:00:56;;;;;;;11.35;2.95;;;8.60;99.90;;;;;;5090637;28;20186;-82
2022/02/17 11:03:22;;;;;;;9.38;2.50;;;8.50;99.90;;;;;;5090682;28;20160;-83
2022/02/17 11:05:49;;;;;;;9.18;2.78;;;8.30;99.90;;;;;;5090559;28;20164;-83
2022/02/17 11:08:16;;;;;;;9.90;2.85;;;8.20;99.90;;;;;;5090556;28;20160;-84
2022/02/17 11:10:43;;;;;;;19.15;3.05;;;8.10;99.90;;;;;;5090529;28;20156;-85
2022/02/17 11:13:12;;;;;;;5.05;2.70;;;8.00;99.90;;;;;;5090574;28;20255;-85
2022/02/17 11:36:21;;;;;;;5.65;2.40;;;7.80;99.90;;;;;;5090859;28;20548;-76
2022/02/17 11:38:55;;;;;;;12.88;2.90;;;7.80;99.90;;;;;;5089188;28;20178;-80
2022/02/17 11:41:27;;;;;;;7.65;3.22;;;7.80;99.90;;;;;;5089791;28;20160;-79
2022/02/17 11:44:06;;;;;;;10.80;2.90;;;7.90;99.90;;;;;;5089809;28;20706;-79
2022/02/17 11:46:40;;;;;;;4.75;2.20;;;7.90;99.90;;;;;;5088695;28;20562;-80
2022/02/17 11:49:29;;;;;;;11.70;2.47;;;8.10;99.90;;;;;;5088482;28;20171;-79
2022/02/17 11:52:14;;;;;;;14.68;4.05;;;8.30;99.90;;;;;;5090353;28;20172;-81
2022/02/17 11:54:40;;;;;;;5.15;2.63;;;8.50;99.90;;;;;;5090559;28;20681;-80
2022/02/17 11:57:33;;;;;;;3.13;1.50;;;8.70;99.90;;;;;;5090469;28;20517;-79
2022/02/17 12:00:19;;;;;;;3.35;1.60;;;8.90;99.90;;;;;;5090411;28;20172;-78
2022/02/17 12:02:45;;;;;;;3.42;1.52;;;9.10;99.90;;;;;;5085256;28;20237;-79
2022/02/17 12:05:17;;;;;;;2.80;2.08;;;9.10;99.90;;;;;;5090371;28;20172;-78
2022/02/17 12:07:43;;;;;;;6.18;2.53;;;9.20;99.90;;;;;;5090300;28;20164;-79
2022/02/17 12:10:39;;;;;;;8.75;2.40;;;9.10;99.90;;;;;;5090244;28;20250;-79
2022/02/17 12:13:05;;;;;;;5.05;2.03;;;9.10;99.90;;;;;;5090163;28;20164;-80
2022/02/17 12:15:31;;;;;;;7.85;1.98;;;9.00;99.90;;;;;;5090105;28;20204;-79
2022/02/17 12:17:58;;;;;;;5.47;2.92;;;9.00;99.90;;;;;;5089967;28;20647;-79
2022/02/17 12:20:25;;;;;;;3.85;1.90;;;9.00;99.90;;;;;;5088765;28;20637;-79
2022/02/17 12:23:07;;;;;;;3.97;2.30;;;9.00;99.90;;;;;;5090034;28;20528;-80
2022/02/17 12:25:34;;;;;;;5.05;1.92;;;9.00;99.90;;;;;;5090075;28;20636;-80
2022/02/17 12:28:03;;;;;;;16.42;2.40;;;8.90;99.90;;;;;;5089853;28;20176;-77
2022/02/17 12:30:49;;;;;;;6.80;2.50;;;8.90;99.90;;;;;;5089903;28;20523;-80
2022/02/17 12:33:24;;;;;;;3.67;2.15;;;8.90;99.90;;;;;;5088623;28;20180;-81
2022/02/17 12:36:00;;;;;;;4.50;1.90;;;9.00;99.90;;;;;;5089636;28;20740;-83
2022/02/17 12:38:31;;;;;;;7.07;1.85;;;8.90;99.90;;;;;;5089946;28;20517;-82
2022/02/17 12:40:56;;;;;;;6.20;2.20;;;8.80;99.90;;;;;;5089698;28;20641;-81
2022/02/17 12:43:32;;;;;;;14.38;3.90;;;8.80;99.90;;;;;;5089642;28;20230;-82
2022/02/17 12:45:58;;;;;;;4.60;2.47;;;8.80;99.90;;;;;;5083862;28;20679;-81
2022/02/17 12:48:29;;;;;;;10.25;2.88;;;8.70;99.90;;;;;;5076115;28;20245;-81
2022/02/17 12:50:54;;;;;;;7.90;2.20;;;8.70;99.90;;;;;;5076051;28;20165;-78
2022/02/17 12:53:20;;;;;;;10.00;2.75;;;8.80;99.90;;;;;;5074713;28;20311;-82
2022/02/17 12:55:51;;;;;;;11.38;2.33;;;8.80;99.90;;;;;;5075857;28;20245;-83
2022/02/17 12:58:33;;;;;;;11.10;2.17;;;8.80;99.90;;;;;;5074584;28;20263;-79
2022/02/17 13:01:01;;;;;;;7.95;2.40;;;8.90;99.90;;;;;;5075809;28;20160;-77
2022/02/17 13:03:34;;;;;;;7.68;2.33;;;8.90;99.90;;;;;;5075788;28;20646;-80
2022/02/17 13:06:19;;;;;;;5.32;2.20;;;8.70;99.90;;;;;;5075761;28;20526;-79
2022/02/17 13:08:46;;;;;;;4.53;2.75;;;8.80;99.90;;;;;;5075669;28;20172;-79
2022/02/17 13:11:17;;;;;;;8.18;2.00;;;8.90;99.90;;;;;;5075623;28;20248;-80
2022/02/17 13:13:44;;;;;;;5.88;2.40;;;8.80;99.90;;;;;;5075576;28;20168;-79
2022/02/17 13:16:13;;;;;;;6.47;2.25;;;8.80;99.90;;;;;;5075596;28;20192;-79
2022/02/17 13:18:41;;;;;;;11.63;2.10;;;8.90;99.90;;;;;;5075468;28;20538;-80
2022/02/17 13:21:17;;;;;;;12.30;2.97;;;9.00;99.90;;;;;;5075386;28;20208;-82
2022/02/17 13:23:43;;;;;;;3.90;1.80;;;8.90;99.90;;;;;;5075404;28;20160;-79
2022/02/17 13:26:28;;;;;;;8.48;2.67;;;8.80;99.90;;;;;;5075369;28;20172;-82
2022/02/17 13:28:55;;;;;;;5.68;2.60;;;8.70;99.90;;;;;;5075344;28;20165;-82
2022/02/17 13:31:22;;;;;;;6.95;2.47;;;8.60;99.90;;;;;;5075333;28;20252;-82
2022/02/17 13:33:48;;;;;;;9.20;2.03;;;8.60;99.90;;;;;;5074936;28;20215;-81
2022/02/17 13:36:24;;;;;;;14.30;3.03;;;8.60;99.90;;;;;;5075176;28;20172;-79
2022/02/17 13:39:20;;;;;;;7.78;2.67;;;8.50;99.90;;;;;;5075035;28;20641;-79
2022/02/17 13:42:08;;;;;;;4.53;2.30;;;8.50;99.90;;;;;;5075067;28;20176;-83
2022/02/17 13:44:39;;;;;;;12.73;2.17;;;8.40;99.90;;;;;;5074959;28;20173;-80
2022/02/17 13:47:12;;;;;;;6.13;2.63;;;8.30;99.90;;;;;;5074990;28;20188;-81
2022/02/17 13:49:41;;;;;;;3.65;2.08;;;8.30;99.90;;;;;;5074980;28;20175;-79
2022/02/17 13:52:06;;;;;;;6.90;2.28;;;8.30;99.90;;;;;;5074830;28;20172;-80
2022/02/17 13:54:56;;;;;;;3.08;1.90;;;8.40;99.90;;;;;;5074804;28;20657;-78
2022/02/17 13:57:23;;;;;;;3.75;1.60;;;8.40;99.90;;;;;;5073815;28;20252;-79
2022/02/17 13:59:49;;;;;;;7.68;2.60;;;8.50;99.90;;;;;;5074648;28;20165;-78
2022/02/17 14:02:32;;;;;;;3.03;2.00;;;8.60;99.90;;;;;;5074639;28;20196;-78
2022/02/17 14:05:02;;;;;;;4.35;2.30;;;8.80;99.90;;;;;;5074621;28;20168;-80
2022/02/17 14:07:28;;;;;;;7.88;2.70;;;8.90;99.90;;;;;;5073273;28;20172;-74
2022/02/17 14:09:54;;;;;;;9.35;2.65;;;8.80;99.90;;;;;;5074496;28;20165;-79
2022/02/17 14:12:20;;;;;;;2.85;1.80;;;8.50;99.90;;;;;;5074419;28;20247;-83
2022/02/17 14:14:45;;;;;;;2.38;1.88;;;8.60;99.90;;;;;;5074347;28;20238;-80
2022/02/17 14:17:18;;;;;;;2.80;2.00;;;8.60;99.90;;;;;;5074372;28;20168;-83
2022/02/17 14:19:44;;;;;;;2.78;1.88;;;8.80;99.90;;;;;;5074380;28;20234;-85
2022/02/17 14:22:10;;;;;;;5.25;1.70;;;8.90;99.90;;;;;;5074127;28;20210;-85
2022/02/17 14:24:35;;;;;;;2.00;1.90;;;9.10;99.90;;;;;;5074386;28;20169;-90
2022/02/17 14:27:02;;;;;;;5.43;1.67;;;9.10;99.90;;;;;;5074590;28;20203;-86
2022/02/17 14:29:29;;;;;;;7.30;2.35;;;9.00;99.90;;;;;;5074373;28;20176;-91
2022/02/17 14:31:56;;;;;;;8.18;3.97;;;9.00;99.90;;;;;;5072890;28;20172;-90
2022/02/17 14:34:22;;;;;;;9.90;1.95;;;8.90;99.90;;;;;;5074298;28;20369;-88
2022/02/17 14:36:48;;;;;;;11.95;4.22;;;8.80;99.90;;;;;;5074232;28;20164;-86
2022/02/17 14:39:16;;;;;;;4.28;2.15;;;9.20;99.90;;;;;;5074191;28;20169;-87
2022/02/17 14:41:43;;;;;;;8.93;3.13;;;8.40;99.90;;;;;;5073246;28;20531;-86
2022/02/17 14:44:11;;;;;;;5.43;2.08;;;8.70;99.90;;;;;;5072968;28;20672;-89
2022/02/17 14:46:39;;;;;;;10.88;2.70;;;8.40;99.90;;;;;;5074039;28;20172;-87
2022/02/17 14:49:06;;;;;;;5.25;2.15;;;8.50;99.90;;;;;;5074205;28;20252;-88
2022/02/17 14:51:32;;;;;;;5.53;1.90;;;8.60;99.90;;;;;;5073884;28;20176;-90
2022/02/17 14:53:58;;;;;;;3.40;2.42;;;8.70;99.90;;;;;;5072804;28;20192;-88
2022/02/17 14:56:24;;;;;;;8.05;3.05;;;9.10;99.90;;;;;;5072674;28;20176;-91
2022/02/17 14:58:49;;;;;;;13.25;2.35;;;8.60;99.90;;;;;;5073837;28;20618;-91
2022/02/17 15:01:15;;;;;;;5.55;2.00;;;8.70;99.90;;;;;;5072441;28;20175;-86
2022/02/17 15:03:41;;;;;;;6.00;2.45;;;8.90;99.90;;;;;;5073006;28;20172;-85
2022/02/17 15:06:07;;;;;;;14.15;2.45;;;8.60;99.90;;;;;;5072596;28;20234;-87
2022/02/17 15:08:33;;;;;;;5.97;2.67;;;8.60;99.90;;;;;;5072374;28;20218;-85
2022/02/17 15:11:00;;;;;;;5.13;2.25;;;9.40;99.90;;;;;;5072474;28;20621;-84
2022/02/17 15:13:26;;;;;;;2.40;1.90;;;8.50;99.90;;;;;;5073773;28;20526;-83
2022/02/17 15:15:51;;;;;;;4.10;2.10;;;8.70;99.90;;;;;;5072217;28;20204;-83
2022/02/17 15:18:17;;;;;;;7.78;1.95;;;8.40;99.90;;;;;;5072132;28;20180;-78
2022/02/17 15:20:43;;;;;;;6.22;2.30;;;8.40;99.90;;;;;;5073275;28;20216;-78
2022/02/17 15:23:08;;;;;;;6.25;2.42;;;8.50;99.90;;;;;;5073273;28;20622;-78
2022/02/17 15:25:34;;;;;;;7.38;2.50;;;8.50;99.90;;;;;;5072018;28;20184;-79
2022/02/17 15:28:00;;;;;;;5.88;2.08;;;8.50;99.90;;;;;;5073297;28;20255;-91
2022/02/17 15:30:27;;;;;;;8.48;2.10;;;8.50;99.90;;;;;;5073515;28;20175;-93
2022/02/17 15:32:54;;;;;;;5.63;2.03;;;8.50;99.90;;;;;;5072361;28;20176;-89
2022/02/17 15:35:20;;;;;;;4.80;1.90;;;8.60;99.90;;;;;;5072027;28;20223;-86
2022/02/17 15:37:52;;;;;;;4.13;1.90;;;8.50;99.90;;;;;;5072006;28;20200;-87
2022/02/17 15:40:19;;;;;;;5.82;2.20;;;8.50;99.90;;;;;;5072040;28;20164;-88
2022/02/17 15:42:45;;;;;;;5.72;2.83;;;9.00;99.90;;;;;;5072069;28;20173;-88
2022/02/17 15:45:12;;;;;;;5.07;2.30;;;9.20;99.90;;;;;;5072006;28;20202;-78
2022/02/17 15:47:38;;;;;;;6.50;2.35;;;8.40;99.90;;;;;;5073147;28;20179;-77
2022/02/17 15:50:04;;;;;;;9.77;2.22;;;8.50;99.90;;;;;;5073055;28;20164;-77
2022/02/17 15:52:30;;;;;;;10.88;3.00;;;8.50;99.90;;;;;;5072840;28;20243;-78
2022/02/17 15:54:56;;;;;;;4.53;2.03;;;8.50;99.90;;;;;;5072911;28;20338;-78
2022/02/17 15:57:21;;;;;;;9.05;2.55;;;8.50;99.90;;;;;;5071647;28;20168;-79
2022/02/17 15:59:47;;;;;;;8.70;1.77;;;8.50;99.90;;;;;;5072948;28;20199;-78
2022/02/17 16:02:14;;;;;;;4.10;2.10;;;8.40;99.90;;;;;;5072934;28;20244;-78
2022/02/17 16:04:40;;;;;;;5.32;2.00;;;8.30;99.90;;;;;;5072849;28;20165;-76
2022/02/17 16:07:05;;;;;;;6.00;1.95;;;8.10;99.90;;;;;;5072955;28;20183;-76
2022/02/17 16:09:32;;;;;;;7.15;2.20;;;8.10;99.90;;;;;;5072605;28;20195;-77
2022/02/17 16:11:59;;;;;;;4.43;2.00;;;8.00;99.90;;;;;;5072758;28;20161;-78
2022/02/17 16:14:25;;;;;;;6.82;1.98;;;7.90;99.90;;;;;;5072762;28;20196;-77
2022/02/17 16:16:51;;;;;;;7.97;2.30;;;7.90;99.90;;;;;;5072826;28;20650;-76
2022/02/17 16:19:17;;;;;;;5.90;2.47;;;7.80;99.90;;;;;;5072845;28;20210;-77
2022/02/17 16:21:42;;;;;;;3.55;2.40;;;7.70;99.90;;;;;;5074664;28;20185;-77
2022/02/17 16:24:08;;;;;;;6.68;2.63;;;7.70;99.90;;;;;;5076393;28;20560;-77
2022/02/17 16:26:34;;;;;;;2.63;1.52;;;7.60;99.90;;;;;;5075236;28;20176;-78
2022/02/17 16:29:00;;;;;;;5.15;2.55;;;7.60;99.90;;;;;;5076257;28;20168;-76
2022/02/17 16:31:26;;;;;;;1.88;1.77;;;7.60;99.90;;;;;;5076009;28;20173;-76
2022/02/17 16:33:52;;;;;;;6.50;2.25;;;7.50;99.90;;;;;;5076087;28;20243;-77
